Gambell Airport Gambell US
ICAO: PAGM
IATA:
Category: Medium
Scheduled Services:

Elevation: 27 ft
TransAlt. 0 ft.

Airport Communications:
AWOS 3:125.9
ANCHORAGE CNTR:132.2
CTAF:122.7
NOME RDO:122
TWEB:36.9

PAGM Zoom In..

Runways:

(A) RW 16 length 4499 ft width 96 ft
---- / hdg 160

(B) RW 34 length 4499 ft width 96 ft
---- / hdg 340

Location; PAGM
Day. 05 / Time. 09.56 Zulu
* Altimeter: 29.01
* Temperature: -11° c. -12.2°f.
* Wind from: 150° Speed 16 kn.
Dewpoint: -12° c.
Visibility: 10 Statute Miles.
Clouds: Broken 7000 ft.

PAGM 050956Z AUTO 15016KT 10SM BKN070 M11/M12 A2901 RMK AO2 SNE00 SLPNO P0000 T11061117 FZRANO

Going to: --> -->


Wind From 150°
Speed 16 kn.

 
 
jpsmedia worldairports.se 2021   terms of use